sensor_id;sensor_type;location;lat;lon;timestamp;P1;durP1;ratioP1;P2;durP2;ratioP2
22026;SDS011;11177;50.966;10.070;2022-10-31T00:01:53;17.02;;;5.65;;
22026;SDS011;11177;50.966;10.070;2022-10-31T00:04:03;19.33;;;5.30;;
22026;SDS011;11177;50.966;10.070;2022-10-31T00:06:31;15.32;;;5.03;;
22026;SDS011;11177;50.966;10.070;2022-10-31T00:09:00;11.43;;;5.05;;
22026;SDS011;11177;50.966;10.070;2022-10-31T00:11:28;10.00;;;5.25;;
22026;SDS011;11177;50.966;10.070;2022-10-31T00:13:56;12.48;;;5.32;;
22026;SDS011;11177;50.966;10.070;2022-10-31T00:16:25;15.02;;;4.90;;
22026;SDS011;11177;50.966;10.070;2022-10-31T00:18:54;9.90;;;4.72;;
22026;SDS011;11177;50.966;10.070;2022-10-31T00:21:23;16.02;;;6.50;;
22026;SDS011;11177;50.966;10.070;2022-10-31T00:23:52;13.43;;;5.00;;
22026;SDS011;11177;50.966;10.070;2022-10-31T00:26:19;11.68;;;4.88;;
22026;SDS011;11177;50.966;10.070;2022-10-31T00:28:46;12.30;;;4.80;;
22026;SDS011;11177;50.966;10.070;2022-10-31T00:31:14;13.48;;;4.80;;
22026;SDS011;11177;50.966;10.070;2022-10-31T00:33:41;10.63;;;4.40;;
22026;SDS011;11177;50.966;10.070;2022-10-31T00:36:16;11.85;;;4.70;;
22026;SDS011;11177;50.966;10.070;2022-10-31T00:38:44;13.63;;;5.50;;
22026;SDS011;11177;50.966;10.070;2022-10-31T00:41:12;12.85;;;4.70;;
22026;SDS011;11177;50.966;10.070;2022-10-31T00:43:41;15.75;;;5.28;;
22026;SDS011;11177;50.966;10.070;2022-10-31T00:46:10;14.48;;;5.53;;
22026;SDS011;11177;50.966;10.070;2022-10-31T00:48:37;11.07;;;4.78;;
22026;SDS011;11177;50.966;10.070;2022-10-31T00:51:05;10.70;;;5.18;;
22026;SDS011;11177;50.966;10.070;2022-10-31T00:53:33;13.32;;;4.78;;
22026;SDS011;11177;50.966;10.070;2022-10-31T00:56:00;19.45;;;5.43;;
22026;SDS011;11177;50.966;10.070;2022-10-31T00:58:27;14.85;;;6.50;;
22026;SDS011;11177;50.966;10.070;2022-10-31T01:00:54;14.70;;;5.63;;
22026;SDS011;11177;50.966;10.070;2022-10-31T01:03:22;10.13;;;5.00;;
22026;SDS011;11177;50.966;10.070;2022-10-31T01:05:57;12.80;;;5.35;;
22026;SDS011;11177;50.966;10.070;2022-10-31T01:08:43;15.77;;;5.85;;
22026;SDS011;11177;50.966;10.070;2022-10-31T01:11:11;14.18;;;6.20;;
22026;SDS011;11177;50.966;10.070;2022-10-31T01:13:42;21.63;;;5.78;;
22026;SDS011;11177;50.966;10.070;2022-10-31T01:16:10;12.32;;;5.75;;
22026;SDS011;11177;50.966;10.070;2022-10-31T01:18:39;14.43;;;6.05;;
22026;SDS011;11177;50.966;10.070;2022-10-31T01:21:08;14.80;;;6.07;;
22026;SDS011;11177;50.966;10.070;2022-10-31T01:23:40;14.85;;;5.78;;
22026;SDS011;11177;50.966;10.070;2022-10-31T01:26:09;15.65;;;5.40;;
22026;SDS011;11177;50.966;10.070;2022-10-31T01:28:48;8.00;;;4.95;;
22026;SDS011;11177;50.966;10.070;2022-10-31T01:31:20;12.38;;;5.25;;
22026;SDS011;11177;50.966;10.070;2022-10-31T01:33:48;5.25;;;3.70;;
22026;SDS011;11177;50.966;10.070;2022-10-31T01:36:19;7.20;;;3.78;;
22026;SDS011;11177;50.966;10.070;2022-10-31T01:38:49;3.95;;;3.42;;
22026;SDS011;11177;50.966;10.070;2022-10-31T01:41:20;4.30;;;3.15;;
22026;SDS011;11177;50.966;10.070;2022-10-31T01:46:37;5.50;;;3.30;;
22026;SDS011;11177;50.966;10.070;2022-10-31T01:49:18;4.28;;;3.13;;
22026;SDS011;11177;50.966;10.070;2022-10-31T01:52:09;6.60;;;3.20;;
22026;SDS011;11177;50.966;10.070;2022-10-31T01:54:44;5.53;;;3.47;;
22026;SDS011;11177;50.966;10.070;2022-10-31T01:57:17;5.97;;;3.50;;
22026;SDS011;11177;50.966;10.070;2022-10-31T01:59:47;5.80;;;2.92;;
22026;SDS011;11177;50.966;10.070;2022-10-31T02:02:16;9.15;;;4.22;;
22026;SDS011;11177;50.966;10.070;2022-10-31T02:04:46;8.27;;;3.78;;
22026;SDS011;11177;50.966;10.070;2022-10-31T02:07:15;8.20;;;3.80;;
22026;SDS011;11177;50.966;10.070;2022-10-31T02:09:45;10.40;;;3.80;;
22026;SDS011;11177;50.966;10.070;2022-10-31T02:12:13;11.02;;;4.00;;
22026;SDS011;11177;50.966;10.070;2022-10-31T02:14:40;7.20;;;4.35;;
22026;SDS011;11177;50.966;10.070;2022-10-31T02:17:07;10.52;;;4.70;;
22026;SDS011;11177;50.966;10.070;2022-10-31T02:19:59;8.25;;;4.70;;
22026;SDS011;11177;50.966;10.070;2022-10-31T02:22:51;17.55;;;4.95;;
22026;SDS011;11177;50.966;10.070;2022-10-31T02:28:47;11.43;;;4.27;;
22026;SDS011;11177;50.966;10.070;2022-10-31T02:32:27;10.10;;;4.18;;
22026;SDS011;11177;50.966;10.070;2022-10-31T02:34:52;12.25;;;4.43;;
22026;SDS011;11177;50.966;10.070;2022-10-31T02:38:29;9.00;;;4.63;;
22026;SDS011;11177;50.966;10.070;2022-10-31T02:41:06;10.57;;;4.13;;
22026;SDS011;11177;50.966;10.070;2022-10-31T02:45:14;12.20;;;4.60;;
22026;SDS011;11177;50.966;10.070;2022-10-31T02:52:20;9.95;;;4.28;;
22026;SDS011;11177;50.966;10.070;2022-10-31T02:54:48;7.53;;;4.20;;
22026;SDS011;11177;50.966;10.070;2022-10-31T02:57:17;6.00;;;4.30;;
22026;SDS011;11177;50.966;10.070;2022-10-31T02:59:48;8.10;;;4.03;;
22026;SDS011;11177;50.966;10.070;2022-10-31T03:05:40;8.95;;;4.05;;
22026;SDS011;11177;50.966;10.070;2022-10-31T03:08:23;14.80;;;4.22;;
22026;SDS011;11177;50.966;10.070;2022-10-31T03:16:26;10.15;;;4.80;;
22026;SDS011;11177;50.966;10.070;2022-10-31T03:19:15;13.23;;;4.53;;
22026;SDS011;11177;50.966;10.070;2022-10-31T03:21:47;10.63;;;4.28;;
22026;SDS011;11177;50.966;10.070;2022-10-31T03:24:17;7.85;;;4.80;;
22026;SDS011;11177;50.966;10.070;2022-10-31T03:26:46;8.45;;;4.13;;
22026;SDS011;11177;50.966;10.070;2022-10-31T03:29:16;7.53;;;4.00;;
22026;SDS011;11177;50.966;10.070;2022-10-31T03:31:49;7.38;;;3.90;;
22026;SDS011;11177;50.966;10.070;2022-10-31T03:34:18;9.02;;;4.10;;
22026;SDS011;11177;50.966;10.070;2022-10-31T03:36:47;6.97;;;3.78;;
22026;SDS011;11177;50.966;10.070;2022-10-31T03:39:16;11.45;;;4.18;;
22026;SDS011;11177;50.966;10.070;2022-10-31T03:41:46;8.88;;;4.35;;
22026;SDS011;11177;50.966;10.070;2022-10-31T03:44:35;18.35;;;4.25;;
22026;SDS011;11177;50.966;10.070;2022-10-31T03:47:02;12.35;;;4.78;;
22026;SDS011;11177;50.966;10.070;2022-10-31T03:49:31;12.50;;;5.20;;
22026;SDS011;11177;50.966;10.070;2022-10-31T03:52:21;7.65;;;4.30;;
22026;SDS011;11177;50.966;10.070;2022-10-31T03:54:54;10.77;;;4.35;;
22026;SDS011;11177;50.966;10.070;2022-10-31T03:57:38;12.20;;;4.57;;
22026;SDS011;11177;50.966;10.070;2022-10-31T04:00:08;9.00;;;4.32;;
22026;SDS011;11177;50.966;10.070;2022-10-31T04:02:39;9.48;;;4.43;;
22026;SDS011;11177;50.966;10.070;2022-10-31T04:05:09;14.82;;;4.72;;
22026;SDS011;11177;50.966;10.070;2022-10-31T04:07:38;12.82;;;4.72;;
22026;SDS011;11177;50.966;10.070;2022-10-31T04:10:09;13.18;;;4.78;;
22026;SDS011;11177;50.966;10.070;2022-10-31T04:12:37;10.88;;;4.60;;
22026;SDS011;11177;50.966;10.070;2022-10-31T04:15:06;10.18;;;4.47;;
22026;SDS011;11177;50.966;10.070;2022-10-31T04:17:35;9.43;;;4.70;;
22026;SDS011;11177;50.966;10.070;2022-10-31T04:20:05;10.73;;;4.53;;
22026;SDS011;11177;50.966;10.070;2022-10-31T04:22:33;9.73;;;4.63;;
22026;SDS011;11177;50.966;10.070;2022-10-31T04:25:00;12.40;;;4.35;;
22026;SDS011;11177;50.966;10.070;2022-10-31T04:27:27;8.48;;;4.72;;
22026;SDS011;11177;50.966;10.070;2022-10-31T04:29:55;10.65;;;4.28;;
22026;SDS011;11177;50.966;10.070;2022-10-31T04:32:22;6.18;;;3.60;;
22026;SDS011;11177;50.966;10.070;2022-10-31T04:34:49;6.72;;;3.45;;
22026;SDS011;11177;50.966;10.070;2022-10-31T04:37:16;6.97;;;3.65;;
22026;SDS011;11177;50.966;10.070;2022-10-31T04:39:43;7.53;;;3.45;;
22026;SDS011;11177;50.966;10.070;2022-10-31T04:42:09;5.55;;;3.20;;
22026;SDS011;11177;50.966;10.070;2022-10-31T04:44:36;3.97;;;3.10;;
22026;SDS011;11177;50.966;10.070;2022-10-31T04:47:04;3.35;;;3.05;;
22026;SDS011;11177;50.966;10.070;2022-10-31T04:49:31;5.22;;;3.50;;
22026;SDS011;11177;50.966;10.070;2022-10-31T04:51:58;8.05;;;3.83;;
22026;SDS011;11177;50.966;10.070;2022-10-31T04:54:25;4.82;;;3.58;;
22026;SDS011;11177;50.966;10.070;2022-10-31T04:56:53;6.32;;;3.25;;
22026;SDS011;11177;50.966;10.070;2022-10-31T04:59:19;7.75;;;3.72;;
22026;SDS011;11177;50.966;10.070;2022-10-31T05:01:46;7.07;;;4.28;;
22026;SDS011;11177;50.966;10.070;2022-10-31T05:04:13;8.48;;;4.10;;
22026;SDS011;11177;50.966;10.070;2022-10-31T05:06:40;12.07;;;4.07;;
22026;SDS011;11177;50.966;10.070;2022-10-31T05:09:07;13.90;;;4.38;;
22026;SDS011;11177;50.966;10.070;2022-10-31T05:11:35;11.43;;;4.15;;
22026;SDS011;11177;50.966;10.070;2022-10-31T05:14:03;8.68;;;3.67;;
22026;SDS011;11177;50.966;10.070;2022-10-31T05:16:30;10.77;;;4.05;;
22026;SDS011;11177;50.966;10.070;2022-10-31T05:18:57;11.35;;;4.65;;
22026;SDS011;11177;50.966;10.070;2022-10-31T05:21:24;9.50;;;4.10;;
22026;SDS011;11177;50.966;10.070;2022-10-31T05:23:52;10.88;;;4.03;;
22026;SDS011;11177;50.966;10.070;2022-10-31T05:26:19;7.13;;;3.88;;
22026;SDS011;11177;50.966;10.070;2022-10-31T05:28:46;7.32;;;3.53;;
22026;SDS011;11177;50.966;10.070;2022-10-31T05:31:13;9.15;;;3.45;;
22026;SDS011;11177;50.966;10.070;2022-10-31T05:33:40;7.28;;;3.90;;
22026;SDS011;11177;50.966;10.070;2022-10-31T05:36:07;8.63;;;3.75;;
22026;SDS011;11177;50.966;10.070;2022-10-31T05:38:35;11.45;;;4.18;;
22026;SDS011;11177;50.966;10.070;2022-10-31T05:41:02;9.63;;;3.88;;
22026;SDS011;11177;50.966;10.070;2022-10-31T05:43:29;7.30;;;3.72;;
22026;SDS011;11177;50.966;10.070;2022-10-31T05:45:56;8.15;;;4.15;;
22026;SDS011;11177;50.966;10.070;2022-10-31T05:48:24;5.95;;;3.55;;
22026;SDS011;11177;50.966;10.070;2022-10-31T05:50:51;10.82;;;4.05;;
22026;SDS011;11177;50.966;10.070;2022-10-31T05:53:18;9.52;;;4.00;;
22026;SDS011;11177;50.966;10.070;2022-10-31T05:55:46;12.32;;;4.15;;
22026;SDS011;11177;50.966;10.070;2022-10-31T05:58:13;7.45;;;4.20;;
22026;SDS011;11177;50.966;10.070;2022-10-31T06:00:41;10.15;;;4.43;;
22026;SDS011;11177;50.966;10.070;2022-10-31T06:03:08;9.95;;;4.53;;
22026;SDS011;11177;50.966;10.070;2022-10-31T06:05:36;7.57;;;4.30;;
22026;SDS011;11177;50.966;10.070;2022-10-31T06:08:04;11.50;;;4.80;;
22026;SDS011;11177;50.966;10.070;2022-10-31T06:10:31;17.05;;;5.28;;
22026;SDS011;11177;50.966;10.070;2022-10-31T06:12:59;24.13;;;6.15;;
22026;SDS011;11177;50.966;10.070;2022-10-31T06:15:26;18.05;;;5.35;;
22026;SDS011;11177;50.966;10.070;2022-10-31T06:18:04;11.30;;;5.53;;
22026;SDS011;11177;50.966;10.070;2022-10-31T06:20:32;11.27;;;5.32;;
22026;SDS011;11177;50.966;10.070;2022-10-31T06:23:00;18.45;;;5.60;;
22026;SDS011;11177;50.966;10.070;2022-10-31T06:25:28;14.07;;;6.10;;
22026;SDS011;11177;50.966;10.070;2022-10-31T06:27:55;12.27;;;6.00;;
22026;SDS011;11177;50.966;10.070;2022-10-31T06:30:23;17.45;;;6.03;;
22026;SDS011;11177;50.966;10.070;2022-10-31T06:32:50;18.25;;;6.32;;
22026;SDS011;11177;50.966;10.070;2022-10-31T06:35:17;10.73;;;5.97;;
22026;SDS011;11177;50.966;10.070;2022-10-31T06:37:54;18.15;;;6.72;;
22026;SDS011;11177;50.966;10.070;2022-10-31T06:40:22;10.05;;;5.63;;
22026;SDS011;11177;50.966;10.070;2022-10-31T06:42:56;10.98;;;5.88;;
22026;SDS011;11177;50.966;10.070;2022-10-31T06:45:25;14.45;;;5.38;;
22026;SDS011;11177;50.966;10.070;2022-10-31T06:47:53;15.35;;;5.90;;
22026;SDS011;11177;50.966;10.070;2022-10-31T06:50:40;12.60;;;5.78;;
22026;SDS011;11177;50.966;10.070;2022-10-31T06:53:07;21.38;;;5.85;;
22026;SDS011;11177;50.966;10.070;2022-10-31T06:55:35;21.92;;;6.65;;
22026;SDS011;11177;50.966;10.070;2022-10-31T06:58:03;13.73;;;6.50;;
22026;SDS011;11177;50.966;10.070;2022-10-31T07:00:31;28.83;;;7.60;;
22026;SDS011;11177;50.966;10.070;2022-10-31T07:02:59;20.85;;;7.72;;
22026;SDS011;11177;50.966;10.070;2022-10-31T07:05:29;27.10;;;8.75;;
22026;SDS011;11177;50.966;10.070;2022-10-31T07:07:58;23.67;;;8.50;;
22026;SDS011;11177;50.966;10.070;2022-10-31T07:10:27;24.95;;;8.93;;
22026;SDS011;11177;50.966;10.070;2022-10-31T07:13:02;43.75;;;18.25;;
22026;SDS011;11177;50.966;10.070;2022-10-31T07:15:34;25.88;;;11.95;;
22026;SDS011;11177;50.966;10.070;2022-10-31T07:18:03;22.23;;;12.18;;
22026;SDS011;11177;50.966;10.070;2022-10-31T07:20:31;34.25;;;17.85;;
22026;SDS011;11177;50.966;10.070;2022-10-31T07:22:58;22.80;;;11.85;;
22026;SDS011;11177;50.966;10.070;2022-10-31T07:25:26;21.95;;;10.40;;
22026;SDS011;11177;50.966;10.070;2022-10-31T07:27:53;19.15;;;9.80;;
22026;SDS011;11177;50.966;10.070;2022-10-31T07:30:20;17.42;;;10.30;;
22026;SDS011;11177;50.966;10.070;2022-10-31T07:32:47;25.15;;;9.88;;
22026;SDS011;11177;50.966;10.070;2022-10-31T07:35:16;28.27;;;10.10;;
22026;SDS011;11177;50.966;10.070;2022-10-31T07:37:44;25.80;;;9.70;;
22026;SDS011;11177;50.966;10.070;2022-10-31T07:40:12;19.23;;;9.25;;
22026;SDS011;11177;50.966;10.070;2022-10-31T07:42:39;20.77;;;10.43;;
22026;SDS011;11177;50.966;10.070;2022-10-31T07:45:09;30.73;;;10.13;;
22026;SDS011;11177;50.966;10.070;2022-10-31T07:47:42;30.92;;;11.75;;
22026;SDS011;11177;50.966;10.070;2022-10-31T07:50:14;24.67;;;11.45;;
22026;SDS011;11177;50.966;10.070;2022-10-31T07:52:42;23.33;;;11.73;;
22026;SDS011;11177;50.966;10.070;2022-10-31T07:55:11;20.02;;;10.82;;
22026;SDS011;11177;50.966;10.070;2022-10-31T07:57:38;18.95;;;11.38;;
22026;SDS011;11177;50.966;10.070;2022-10-31T08:00:06;22.65;;;10.75;;
22026;SDS011;11177;50.966;10.070;2022-10-31T08:02:36;18.35;;;11.00;;
22026;SDS011;11177;50.966;10.070;2022-10-31T08:05:04;22.58;;;10.85;;
22026;SDS011;11177;50.966;10.070;2022-10-31T08:07:35;17.15;;;10.55;;
22026;SDS011;11177;50.966;10.070;2022-10-31T08:10:03;18.52;;;10.32;;
22026;SDS011;11177;50.966;10.070;2022-10-31T08:12:31;14.63;;;9.82;;
22026;SDS011;11177;50.966;10.070;2022-10-31T08:14:58;18.00;;;10.60;;
22026;SDS011;11177;50.966;10.070;2022-10-31T08:17:25;18.52;;;11.20;;
22026;SDS011;11177;50.966;10.070;2022-10-31T08:19:53;17.35;;;9.95;;
22026;SDS011;11177;50.966;10.070;2022-10-31T08:22:19;17.17;;;9.77;;
22026;SDS011;11177;50.966;10.070;2022-10-31T08:24:46;15.70;;;9.27;;
22026;SDS011;11177;50.966;10.070;2022-10-31T08:27:14;11.05;;;8.10;;
22026;SDS011;11177;50.966;10.070;2022-10-31T08:29:42;11.60;;;7.50;;
22026;SDS011;11177;50.966;10.070;2022-10-31T08:32:09;10.70;;;7.70;;
22026;SDS011;11177;50.966;10.070;2022-10-31T08:34:38;14.80;;;7.30;;
22026;SDS011;11177;50.966;10.070;2022-10-31T08:37:07;13.70;;;7.13;;
22026;SDS011;11177;50.966;10.070;2022-10-31T08:39:34;11.02;;;7.47;;
22026;SDS011;11177;50.966;10.070;2022-10-31T08:42:03;11.85;;;7.50;;
22026;SDS011;11177;50.966;10.070;2022-10-31T08:44:31;12.85;;;7.63;;
22026;SDS011;11177;50.966;10.070;2022-10-31T08:46:59;13.50;;;8.27;;
22026;SDS011;11177;50.966;10.070;2022-10-31T08:49:26;11.65;;;8.13;;
22026;SDS011;11177;50.966;10.070;2022-10-31T08:51:58;13.18;;;7.78;;
22026;SDS011;11177;50.966;10.070;2022-10-31T08:54:26;11.07;;;8.02;;
22026;SDS011;11177;50.966;10.070;2022-10-31T08:56:54;17.95;;;9.48;;
22026;SDS011;11177;50.966;10.070;2022-10-31T08:59:23;11.68;;;8.27;;
22026;SDS011;11177;50.966;10.070;2022-10-31T09:01:52;16.38;;;8.32;;
22026;SDS011;11177;50.966;10.070;2022-10-31T09:04:20;11.13;;;7.75;;
22026;SDS011;11177;50.966;10.070;2022-10-31T09:06:47;14.35;;;8.63;;
22026;SDS011;11177;50.966;10.070;2022-10-31T09:09:35;15.45;;;8.35;;
22026;SDS011;11177;50.966;10.070;2022-10-31T09:12:03;11.20;;;8.02;;
22026;SDS011;11177;50.966;10.070;2022-10-31T09:14:30;14.13;;;8.40;;
22026;SDS011;11177;50.966;10.070;2022-10-31T09:16:59;11.27;;;8.63;;
22026;SDS011;11177;50.966;10.070;2022-10-31T09:19:27;12.32;;;7.97;;
22026;SDS011;11177;50.966;10.070;2022-10-31T09:21:55;12.30;;;8.18;;
22026;SDS011;11177;50.966;10.070;2022-10-31T09:24:26;15.77;;;8.85;;
22026;SDS011;11177;50.966;10.070;2022-10-31T09:26:53;14.20;;;8.38;;
22026;SDS011;11177;50.966;10.070;2022-10-31T09:29:21;14.60;;;8.77;;
22026;SDS011;11177;50.966;10.070;2022-10-31T09:31:49;14.68;;;9.02;;
22026;SDS011;11177;50.966;10.070;2022-10-31T09:34:18;14.85;;;9.30;;
22026;SDS011;11177;50.966;10.070;2022-10-31T09:36:45;15.10;;;9.82;;
22026;SDS011;11177;50.966;10.070;2022-10-31T09:39:20;13.35;;;9.50;;
22026;SDS011;11177;50.966;10.070;2022-10-31T09:41:57;14.40;;;8.82;;
22026;SDS011;11177;50.966;10.070;2022-10-31T09:44:48;13.98;;;9.48;;
22026;SDS011;11177;50.966;10.070;2022-10-31T09:50:20;14.13;;;8.13;;
22026;SDS011;11177;50.966;10.070;2022-10-31T09:53:05;11.40;;;8.02;;
22026;SDS011;11177;50.966;10.070;2022-10-31T09:55:39;15.10;;;7.85;;
22026;SDS011;11177;50.966;10.070;2022-10-31T09:58:13;14.52;;;8.35;;
22026;SDS011;11177;50.966;10.070;2022-10-31T10:00:46;14.95;;;8.63;;
22026;SDS011;11177;50.966;10.070;2022-10-31T10:06:25;31.85;;;20.25;;
22026;SDS011;11177;50.966;10.070;2022-10-31T10:08:56;29.52;;;20.52;;
22026;SDS011;11177;50.966;10.070;2022-10-31T10:14:39;17.15;;;13.07;;
22026;SDS011;11177;50.966;10.070;2022-10-31T10:18:05;16.23;;;10.32;;
22026;SDS011;11177;50.966;10.070;2022-10-31T10:20:40;16.48;;;10.23;;
22026;SDS011;11177;50.966;10.070;2022-10-31T10:26:21;12.95;;;8.05;;
22026;SDS011;11177;50.966;10.070;2022-10-31T10:28:50;12.27;;;7.35;;
22026;SDS011;11177;50.966;10.070;2022-10-31T10:31:25;14.20;;;7.25;;
22026;SDS011;11177;50.966;10.070;2022-10-31T10:34:08;13.88;;;7.57;;
22026;SDS011;11177;50.966;10.070;2022-10-31T10:36:49;10.80;;;6.95;;
22026;SDS011;11177;50.966;10.070;2022-10-31T10:39:23;14.30;;;7.15;;
22026;SDS011;11177;50.966;10.070;2022-10-31T10:42:12;10.03;;;7.00;;
22026;SDS011;11177;50.966;10.070;2022-10-31T10:45:13;13.63;;;7.20;;
22026;SDS011;11177;50.966;10.070;2022-10-31T10:48:06;12.50;;;7.28;;
22026;SDS011;11177;50.966;10.070;2022-10-31T10:50:54;15.40;;;7.25;;
22026;SDS011;11177;50.966;10.070;2022-10-31T10:57:21;18.67;;;7.15;;
22026;SDS011;11177;50.966;10.070;2022-10-31T10:59:25;20.73;;;9.90;;
22026;SDS011;11177;50.966;10.070;2022-10-31T11:01:53;16.45;;;7.75;;
22026;SDS011;11177;50.966;10.070;2022-10-31T11:07:03;10.43;;;7.28;;
22026;SDS011;11177;50.966;10.070;2022-10-31T11:09:34;12.38;;;7.35;;
22026;SDS011;11177;50.966;10.070;2022-10-31T11:15:22;28.00;;;17.98;;
22026;SDS011;11177;50.966;10.070;2022-10-31T11:17:54;26.85;;;17.38;;
22026;SDS011;11177;50.966;10.070;2022-10-31T11:20:28;20.40;;;15.95;;
22026;SDS011;11177;50.966;10.070;2022-10-31T11:23:17;19.00;;;14.52;;
22026;SDS011;11177;50.966;10.070;2022-10-31T11:25:51;22.38;;;12.70;;
22026;SDS011;11177;50.966;10.070;2022-10-31T11:28:25;20.60;;;11.85;;
22026;SDS011;11177;50.966;10.070;2022-10-31T11:30:59;16.90;;;10.57;;
22026;SDS011;11177;50.966;10.070;2022-10-31T11:33:39;21.20;;;11.18;;
22026;SDS011;11177;50.966;10.070;2022-10-31T11:36:18;14.75;;;10.00;;
22026;SDS011;11177;50.966;10.070;2022-10-31T11:38:51;16.05;;;10.13;;
22026;SDS011;11177;50.966;10.070;2022-10-31T11:41:33;17.10;;;10.20;;
22026;SDS011;11177;50.966;10.070;2022-10-31T11:44:33;17.10;;;10.68;;
22026;SDS011;11177;50.966;10.070;2022-10-31T11:47:03;15.80;;;9.60;;
22026;SDS011;11177;50.966;10.070;2022-10-31T11:49:36;17.48;;;9.63;;
22026;SDS011;11177;50.966;10.070;2022-10-31T11:52:07;15.38;;;9.80;;
22026;SDS011;11177;50.966;10.070;2022-10-31T11:55:16;18.25;;;9.15;;
22026;SDS011;11177;50.966;10.070;2022-10-31T11:57:57;17.38;;;9.77;;
22026;SDS011;11177;50.966;10.070;2022-10-31T12:00:30;13.32;;;8.60;;
22026;SDS011;11177;50.966;10.070;2022-10-31T12:03:27;17.60;;;9.00;;
22026;SDS011;11177;50.966;10.070;2022-10-31T12:06:34;16.40;;;7.90;;
22026;SDS011;11177;50.966;10.070;2022-10-31T12:09:38;15.20;;;8.07;;
22026;SDS011;11177;50.966;10.070;2022-10-31T12:12:11;14.63;;;7.57;;
22026;SDS011;11177;50.966;10.070;2022-10-31T12:18:51;29.05;;;19.85;;
22026;SDS011;11177;50.966;10.070;2022-10-31T12:27:55;20.15;;;9.55;;
22026;SDS011;11177;50.966;10.070;2022-10-31T12:33:36;14.18;;;6.75;;
22026;SDS011;11177;50.966;10.070;2022-10-31T12:36:40;12.40;;;6.28;;
22026;SDS011;11177;50.966;10.070;2022-10-31T12:39:19;14.35;;;7.45;;
22026;SDS011;11177;50.966;10.070;2022-10-31T12:45:08;12.48;;;6.07;;
22026;SDS011;11177;50.966;10.070;2022-10-31T12:48:30;11.77;;;6.40;;
22026;SDS011;11177;50.966;10.070;2022-10-31T12:50:53;13.10;;;6.40;;
22026;SDS011;11177;50.966;10.070;2022-10-31T12:53:36;11.40;;;6.90;;
22026;SDS011;11177;50.966;10.070;2022-10-31T12:59:57;13.55;;;6.43;;
22026;SDS011;11177;50.966;10.070;2022-10-31T13:02:33;15.48;;;7.05;;
22026;SDS011;11177;50.966;10.070;2022-10-31T13:05:19;15.05;;;6.95;;
22026;SDS011;11177;50.966;10.070;2022-10-31T13:08:17;11.15;;;6.63;;
22026;SDS011;11177;50.966;10.070;2022-10-31T13:14:32;13.35;;;6.60;;
22026;SDS011;11177;50.966;10.070;2022-10-31T13:16:59;15.95;;;6.57;;
22026;SDS011;11177;50.966;10.070;2022-10-31T13:19:30;10.48;;;6.57;;
22026;SDS011;11177;50.966;10.070;2022-10-31T13:22:16;12.20;;;6.65;;
22026;SDS011;11177;50.966;10.070;2022-10-31T13:28:03;15.95;;;6.38;;
22026;SDS011;11177;50.966;10.070;2022-10-31T13:30:53;17.08;;;7.95;;
22026;SDS011;11177;50.966;10.070;2022-10-31T13:39:22;60.97;;;38.38;;
22026;SDS011;11177;50.966;10.070;2022-10-31T13:42:13;59.90;;;35.08;;
22026;SDS011;11177;50.966;10.070;2022-10-31T13:44:45;46.17;;;29.25;;
22026;SDS011;11177;50.966;10.070;2022-10-31T13:47:20;34.05;;;22.50;;
22026;SDS011;11177;50.966;10.070;2022-10-31T13:49:48;18.25;;;7.80;;
22026;SDS011;11177;50.966;10.070;2022-10-31T13:52:24;17.73;;;10.07;;
22026;SDS011;11177;50.966;10.070;2022-10-31T13:54:57;20.10;;;9.40;;
22026;SDS011;11177;50.966;10.070;2022-10-31T14:00:23;25.20;;;13.10;;
22026;SDS011;11177;50.966;10.070;2022-10-31T14:02:53;22.27;;;9.83;;
22026;SDS011;11177;50.966;10.070;2022-10-31T14:05:32;20.23;;;11.13;;
22026;SDS011;11177;50.966;10.070;2022-10-31T14:08:02;25.98;;;11.90;;
22026;SDS011;11177;50.966;10.070;2022-10-31T14:10:46;17.27;;;7.88;;
22026;SDS011;11177;50.966;10.070;2022-10-31T14:13:20;12.07;;;6.37;;
22026;SDS011;11177;50.966;10.070;2022-10-31T14:15:56;16.00;;;8.00;;
22026;SDS011;11177;50.966;10.070;2022-10-31T14:18:36;14.98;;;8.00;;
22026;SDS011;11177;50.966;10.070;2022-10-31T14:21:41;13.25;;;7.53;;
22026;SDS011;11177;50.966;10.070;2022-10-31T14:24:31;12.88;;;6.82;;
22026;SDS011;11177;50.966;10.070;2022-10-31T14:27:04;16.10;;;7.47;;
22026;SDS011;11177;50.966;10.070;2022-10-31T14:29:43;10.13;;;6.25;;
22026;SDS011;11177;50.966;10.070;2022-10-31T14:32:19;21.90;;;8.30;;
22026;SDS011;11177;50.966;10.070;2022-10-31T14:34:53;17.70;;;8.15;;
22026;SDS011;11177;50.966;10.070;2022-10-31T14:37:30;18.88;;;8.10;;
22026;SDS011;11177;50.966;10.070;2022-10-31T14:40:16;22.63;;;11.25;;
22026;SDS011;11177;50.966;10.070;2022-10-31T14:48:43;21.98;;;8.18;;
22026;SDS011;11177;50.966;10.070;2022-10-31T14:51:36;22.58;;;8.07;;
22026;SDS011;11177;50.966;10.070;2022-10-31T14:54:13;21.23;;;8.32;;
22026;SDS011;11177;50.966;10.070;2022-10-31T14:56:46;20.10;;;10.65;;
22026;SDS011;11177;50.966;10.070;2022-10-31T14:59:18;17.30;;;8.63;;
22026;SDS011;11177;50.966;10.070;2022-10-31T15:01:53;19.70;;;10.35;;
22026;SDS011;11177;50.966;10.070;2022-10-31T15:04:27;21.13;;;10.32;;
22026;SDS011;11177;50.966;10.070;2022-10-31T15:10:03;16.08;;;9.52;;
22026;SDS011;11177;50.966;10.070;2022-10-31T15:12:34;19.30;;;10.10;;
22026;SDS011;11177;50.966;10.070;2022-10-31T15:15:12;19.10;;;8.60;;
22026;SDS011;11177;50.966;10.070;2022-10-31T15:17:51;15.77;;;8.20;;
22026;SDS011;11177;50.966;10.070;2022-10-31T15:20:25;15.23;;;7.90;;
22026;SDS011;11177;50.966;10.070;2022-10-31T15:22:57;16.80;;;7.28;;
22026;SDS011;11177;50.966;10.070;2022-10-31T15:25:28;16.10;;;7.70;;
22026;SDS011;11177;50.966;10.070;2022-10-31T15:28:12;14.43;;;6.85;;
22026;SDS011;11177;50.966;10.070;2022-10-31T15:30:57;12.25;;;7.25;;
22026;SDS011;11177;50.966;10.070;2022-10-31T15:33:31;13.70;;;7.22;;
22026;SDS011;11177;50.966;10.070;2022-10-31T15:36:31;15.90;;;7.40;;
22026;SDS011;11177;50.966;10.070;2022-10-31T15:39:04;14.32;;;7.32;;
22026;SDS011;11177;50.966;10.070;2022-10-31T15:41:48;16.92;;;9.13;;
22026;SDS011;11177;50.966;10.070;2022-10-31T15:44:31;15.13;;;8.32;;
22026;SDS011;11177;50.966;10.070;2022-10-31T15:47:04;17.75;;;9.10;;
22026;SDS011;11177;50.966;10.070;2022-10-31T15:49:40;22.95;;;10.43;;
22026;SDS011;11177;50.966;10.070;2022-10-31T15:52:14;21.33;;;9.68;;
22026;SDS011;11177;50.966;10.070;2022-10-31T15:54:50;14.80;;;8.73;;
22026;SDS011;11177;50.966;10.070;2022-10-31T15:57:22;18.85;;;9.40;;
22026;SDS011;11177;50.966;10.070;2022-10-31T15:59:53;16.63;;;8.73;;
22026;SDS011;11177;50.966;10.070;2022-10-31T16:02:22;18.95;;;8.48;;
22026;SDS011;11177;50.966;10.070;2022-10-31T16:04:55;16.17;;;7.07;;
22026;SDS011;11177;50.966;10.070;2022-10-31T16:07:24;15.27;;;6.75;;
22026;SDS011;11177;50.966;10.070;2022-10-31T16:09:57;18.02;;;8.63;;
22026;SDS011;11177;50.966;10.070;2022-10-31T16:12:37;21.40;;;10.77;;
22026;SDS011;11177;50.966;10.070;2022-10-31T16:15:15;34.55;;;20.13;;
22026;SDS011;11177;50.966;10.070;2022-10-31T16:17:45;40.10;;;20.17;;
22026;SDS011;11177;50.966;10.070;2022-10-31T16:20:18;44.88;;;24.13;;
22026;SDS011;11177;50.966;10.070;2022-10-31T16:22:49;47.10;;;30.00;;
22026;SDS011;11177;50.966;10.070;2022-10-31T16:25:25;61.72;;;32.38;;